Time;durP1;ratioP1;P1;durP2;ratioP2;P2;SDS_P1;SDS_P2;PMS_P1;PMS_P2;Temp;Humidity;BMP_temperature;BMP_pressure;BME280_temperature;BME280_humidity;BME280_pressure;Samples;Min_cycle;Max_cycle;Signal;HPM_P1;HPM_P2
2022/07/11 00:00:17;;;;;;;7.23;2.93;;;;;;;;;;5046782;28;20671;-76
2022/07/11 00:02:46;;;;;;;3.57;2.57;;;;;;;;;;5053560;28;20202;-76
2022/07/11 00:05:14;;;;;;;3.23;2.60;;;;;;;;;;5053960;28;20231;-76
2022/07/11 00:07:42;;;;;;;5.50;3.10;;;;;;;;;;5043779;28;20249;-75
2022/07/11 00:10:11;;;;;;;5.13;3.10;;;;;;;;;;5053146;28;20211;-75
2022/07/11 00:12:41;;;;;;;4.13;2.80;;;;;;;;;;5052698;28;20211;-76
2022/07/11 00:15:10;;;;;;;6.33;2.90;;;;;;;;;;5053230;28;20696;-75
2022/07/11 00:17:38;;;;;;;3.70;2.60;;;;;;;;;;5053076;28;20218;-76
2022/07/11 00:20:07;;;;;;;8.27;3.13;;;;;;;;;;5053403;28;20637;-76
2022/07/11 00:22:35;;;;;;;3.60;2.47;;;;;;;;;;5053548;28;20187;-76
2022/07/11 00:25:04;;;;;;;3.67;2.77;;;;;;;;;;5053357;28;20227;-76
2022/07/11 00:27:32;;;;;;;5.00;2.73;;;;;;;;;;5052491;28;20207;-76
2022/07/11 00:30:02;;;;;;;5.43;2.60;;;;;;;;;;5052936;28;20601;-76
2022/07/11 00:32:31;;;;;;;4.63;2.63;;;;;;;;;;5041184;28;20680;-76
2022/07/11 00:34:59;;;;;;;2.93;2.60;;;;;;;;;;5053034;28;20250;-76
2022/07/11 00:37:27;;;;;;;5.37;2.67;;;;;;;;;;5052942;28;20214;-76
2022/07/11 00:39:59;;;;;;;5.83;2.80;;;;;;;;;;5050255;28;20213;-76
2022/07/11 00:42:27;;;;;;;4.03;2.93;;;;;;;;;;5051601;28;20207;-76
2022/07/11 00:44:56;;;;;;;4.70;2.67;;;;;;;;;;5048474;28;20206;-76
2022/07/11 00:47:26;;;;;;;3.47;2.90;;;;;;;;;;5052346;28;20199;-76
2022/07/11 00:49:54;;;;;;;4.00;2.80;;;;;;;;;;5053174;28;20272;-76
2022/07/11 00:52:22;;;;;;;6.03;3.00;;;;;;;;;;5052898;28;20231;-76
2022/07/11 00:54:54;;;;;;;7.13;3.00;;;;;;;;;;5053340;28;20680;-76
2022/07/11 00:57:23;;;;;;;8.23;3.17;;;;;;;;;;5047402;28;20199;-76
2022/07/11 00:59:52;;;;;;;3.57;2.87;;;;;;;;;;5053172;28;20264;-76
2022/07/11 01:02:20;;;;;;;3.50;2.80;;;;;;;;;;5052363;28;20203;-76
2022/07/11 01:04:52;;;;;;;4.77;3.30;;;;;;;;;;5033334;28;20656;-75
2022/07/11 01:07:20;;;;;;;5.47;3.30;;;;;;;;;;5033841;28;20200;-76
2022/07/11 01:09:49;;;;;;;4.50;3.20;;;;;;;;;;5050306;28;20199;-76
2022/07/11 01:12:17;;;;;;;5.77;3.33;;;;;;;;;;5055779;28;20231;-76
2022/07/11 01:14:52;;;;;;;4.30;3.30;;;;;;;;;;5037304;28;20222;-76
2022/07/11 01:17:21;;;;;;;5.07;3.30;;;;;;;;;;5050366;28;20207;-76
2022/07/11 01:19:51;;;;;;;4.00;3.60;;;;;;;;;;5053368;28;20260;-76
2022/07/11 01:22:22;;;;;;;4.57;3.20;;;;;;;;;;5039462;28;20196;-76
2022/07/11 01:24:53;;;;;;;4.67;3.27;;;;;;;;;;5056002;28;20237;-75
2022/07/11 01:27:21;;;;;;;5.40;3.30;;;;;;;;;;5052398;28;20289;-76
2022/07/11 01:29:50;;;;;;;5.23;3.37;;;;;;;;;;5055079;28;20202;-76
2022/07/11 01:32:19;;;;;;;4.37;3.40;;;;;;;;;;5056572;28;20292;-75
2022/07/11 01:34:47;;;;;;;6.37;3.67;;;;;;;;;;5037062;28;20633;-76
2022/07/11 01:37:16;;;;;;;5.10;3.50;;;;;;;;;;5036069;28;20207;-75
2022/07/11 01:39:44;;;;;;;4.70;3.40;;;;;;;;;;5042746;28;20208;-76
2022/07/11 01:42:14;;;;;;;6.33;3.90;;;;;;;;;;5056092;28;20207;-75
2022/07/11 01:44:42;;;;;;;6.87;3.90;;;;;;;;;;5055976;28;20234;-76
2022/07/11 01:47:11;;;;;;;5.73;3.70;;;;;;;;;;5056290;28;20195;-76
2022/07/11 01:49:39;;;;;;;5.07;3.70;;;;;;;;;;5055704;28;20203;-75
2022/07/11 01:52:08;;;;;;;6.97;4.30;;;;;;;;;;5036053;28;20210;-75
2022/07/11 01:54:37;;;;;;;7.00;4.50;;;;;;;;;;5053038;28;20575;-76
2022/07/11 01:57:05;;;;;;;8.23;4.80;;;;;;;;;;5055694;28;20207;-76
2022/07/11 01:59:35;;;;;;;6.03;3.90;;;;;;;;;;5055765;28;20257;-75
2022/07/11 02:02:03;;;;;;;7.40;4.30;;;;;;;;;;5055391;28;20207;-75
2022/07/11 02:04:32;;;;;;;7.30;4.63;;;;;;;;;;5056097;28;20207;-75
2022/07/11 02:07:01;;;;;;;5.23;4.37;;;;;;;;;;5055530;28;20223;-75
2022/07/11 02:09:29;;;;;;;10.27;5.00;;;;;;;;;;5055332;28;20207;-76
2022/07/11 02:11:58;;;;;;;8.70;4.80;;;;;;;;;;5041247;28;20211;-75
2022/07/11 02:14:26;;;;;;;8.80;4.80;;;;;;;;;;5036178;28;20233;-76
2022/07/11 02:16:56;;;;;;;7.40;4.60;;;;;;;;;;5052144;28;20265;-76
2022/07/11 02:19:24;;;;;;;5.53;4.23;;;;;;;;;;5055799;28;20604;-76
2022/07/11 02:21:53;;;;;;;7.07;4.30;;;;;;;;;;5053804;28;20204;-76
2022/07/11 02:24:21;;;;;;;4.77;3.90;;;;;;;;;;5055905;28;20253;-75
2022/07/11 02:26:50;;;;;;;6.50;4.57;;;;;;;;;;5055196;28;20272;-75
2022/07/11 02:29:22;;;;;;;8.60;4.20;;;;;;;;;;5055869;28;20203;-76
2022/07/11 02:31:52;;;;;;;6.83;4.17;;;;;;;;;;5055474;28;20207;-76
2022/07/11 02:34:22;;;;;;;10.10;4.50;;;;;;;;;;5055137;28;20273;-75
2022/07/11 02:36:50;;;;;;;7.47;3.93;;;;;;;;;;5054096;28;20223;-76
2022/07/11 02:39:18;;;;;;;8.63;4.50;;;;;;;;;;5054949;28;20207;-76
2022/07/11 02:41:47;;;;;;;10.23;3.70;;;;;;;;;;5054800;28;20211;-76
2022/07/11 02:44:15;;;;;;;7.97;4.50;;;;;;;;;;5054443;28;20249;-76
2022/07/11 02:46:44;;;;;;;7.70;4.20;;;;;;;;;;5047088;28;20226;-76
2022/07/11 02:49:12;;;;;;;6.70;4.33;;;;;;;;;;5054395;28;20634;-76
2022/07/11 02:51:42;;;;;;;7.50;5.30;;;;;;;;;;5048824;28;20203;-76
2022/07/11 02:54:10;;;;;;;5.93;4.70;;;;;;;;;;5055018;28;20238;-76
2022/07/11 02:56:39;;;;;;;7.37;4.77;;;;;;;;;;5054668;28;20262;-76
2022/07/11 02:59:07;;;;;;;7.60;4.50;;;;;;;;;;5054778;28;20207;-75
2022/07/11 03:01:36;;;;;;;7.73;5.30;;;;;;;;;;5055020;28;20200;-76
2022/07/11 03:04:04;;;;;;;8.20;4.93;;;;;;;;;;5054796;28;20199;-76
2022/07/11 03:06:33;;;;;;;5.80;3.90;;;;;;;;;;5054810;28;20696;-76
2022/07/11 03:09:03;;;;;;;5.63;3.23;;;;;;;;;;5054869;28;20652;-76
2022/07/11 03:11:31;;;;;;;7.97;3.60;;;;;;;;;;5043420;28;20289;-76
2022/07/11 03:14:01;;;;;;;6.53;3.67;;;;;;;;;;5035379;28;20235;-76
2022/07/11 03:16:29;;;;;;;6.43;3.70;;;;;;;;;;5036043;28;20231;-75
2022/07/11 03:18:58;;;;;;;4.30;3.23;;;;;;;;;;5050990;28;20214;-76
2022/07/11 03:21:27;;;;;;;7.97;3.80;;;;;;;;;;5053871;28;20206;-75
2022/07/11 03:23:55;;;;;;;4.40;3.50;;;;;;;;;;5054407;28;20218;-76
2022/07/11 03:26:25;;;;;;;4.37;3.03;;;;;;;;;;5053594;28;20226;-76
2022/07/11 03:28:54;;;;;;;4.67;2.80;;;;;;;;;;5054745;28;20624;-76
2022/07/11 03:31:22;;;;;;;5.27;2.83;;;;;;;;;;5054153;28;20207;-76
2022/07/11 03:33:51;;;;;;;4.27;2.90;;;;;;;;;;5054661;28;20223;-76
2022/07/11 03:36:19;;;;;;;5.17;2.97;;;;;;;;;;5053950;28;20231;-77
2022/07/11 03:38:48;;;;;;;4.63;3.17;;;;;;;;;;5054278;28;20196;-77
2022/07/11 03:41:16;;;;;;;5.53;3.03;;;;;;;;;;5046092;28;20222;-77
2022/07/11 03:43:46;;;;;;;4.80;3.37;;;;;;;;;;5034599;28;20200;-77
2022/07/11 03:46:14;;;;;;;3.40;3.10;;;;;;;;;;5053255;28;20711;-78
2022/07/11 03:48:44;;;;;;;6.60;3.60;;;;;;;;;;5034291;28;20592;-77
2022/07/11 03:51:12;;;;;;;6.03;3.77;;;;;;;;;;5035139;28;20203;-77
2022/07/11 03:53:40;;;;;;;4.67;3.97;;;;;;;;;;5053682;28;20695;-78
2022/07/11 03:56:09;;;;;;;4.33;3.83;;;;;;;;;;5054198;28;20583;-78
2022/07/11 03:58:38;;;;;;;6.07;4.00;;;;;;;;;;5054491;28;20664;-78
2022/07/11 04:01:08;;;;;;;5.23;3.80;;;;;;;;;;5054176;28;20660;-78
2022/07/11 04:03:36;;;;;;;3.97;3.57;;;;;;;;;;5053741;28;20203;-77
2022/07/11 04:06:05;;;;;;;4.47;2.90;;;;;;;;;;5052824;28;20223;-78
2022/07/11 04:08:33;;;;;;;4.63;2.83;;;;;;;;;;5053191;28;20199;-78
2022/07/11 04:11:02;;;;;;;2.93;2.73;;;;;;;;;;5045472;28;20215;-77
2022/07/11 04:13:31;;;;;;;4.93;3.30;;;;;;;;;;5053194;28;20710;-77
2022/07/11 04:15:59;;;;;;;3.80;3.10;;;;;;;;;;5041801;28;20227;-77
2022/07/11 04:18:30;;;;;;;4.00;3.43;;;;;;;;;;5053945;28;20290;-77
2022/07/11 04:20:58;;;;;;;4.70;3.77;;;;;;;;;;5039256;28;20253;-77
2022/07/11 04:23:35;;;;;;;6.33;3.80;;;;;;;;;;5047181;28;20213;-77
2022/07/11 04:26:04;;;;;;;6.27;4.00;;;;;;;;;;5050411;28;20211;-77
2022/07/11 04:28:32;;;;;;;4.20;3.63;;;;;;;;;;5052858;28;20214;-77
2022/07/11 04:31:01;;;;;;;3.87;3.50;;;;;;;;;;5044350;28;20233;-78
2022/07/11 04:33:30;;;;;;;4.37;3.30;;;;;;;;;;5053520;28;20200;-77
2022/07/11 04:35:59;;;;;;;4.63;3.53;;;;;;;;;;5053025;28;20214;-77
2022/07/11 04:38:28;;;;;;;4.67;3.20;;;;;;;;;;5053438;28;20260;-77
2022/07/11 04:40:56;;;;;;;4.47;3.30;;;;;;;;;;5048590;28;20211;-77
2022/07/11 04:43:25;;;;;;;3.97;3.17;;;;;;;;;;5041961;28;20218;-78
2022/07/11 04:45:53;;;;;;;5.73;3.30;;;;;;;;;;5051731;28;20219;-78
2022/07/11 04:48:27;;;;;;;3.50;3.20;;;;;;;;;;5044932;28;20203;-77
2022/07/11 04:50:57;;;;;;;4.13;3.30;;;;;;;;;;5053797;28;20225;-77
2022/07/11 04:53:25;;;;;;;4.73;3.50;;;;;;;;;;5053983;28;20229;-77
2022/07/11 04:55:54;;;;;;;4.73;3.57;;;;;;;;;;5050768;28;20227;-77
2022/07/11 04:58:23;;;;;;;5.00;3.10;;;;;;;;;;5053230;28;20195;-77
2022/07/11 05:00:52;;;;;;;3.53;3.00;;;;;;;;;;5053634;28;20209;-78
2022/07/11 05:03:20;;;;;;;4.57;3.20;;;;;;;;;;5053510;28;20693;-77
2022/07/11 05:05:49;;;;;;;4.40;3.33;;;;;;;;;;5052879;28;20234;-77
2022/07/11 05:08:19;;;;;;;3.30;2.83;;;;;;;;;;5052282;28;20199;-77
2022/07/11 05:10:47;;;;;;;3.43;3.13;;;;;;;;;;5038949;28;20218;-77
2022/07/11 05:13:15;;;;;;;3.67;3.00;;;;;;;;;;5053068;28;20211;-78
2022/07/11 05:15:44;;;;;;;4.50;3.10;;;;;;;;;;5052337;28;20230;-77
2022/07/11 05:18:12;;;;;;;4.13;2.90;;;;;;;;;;5053110;28;20196;-77
2022/07/11 05:20:41;;;;;;;5.93;3.60;;;;;;;;;;5052888;28;20199;-77
2022/07/11 05:23:10;;;;;;;11.70;3.67;;;;;;;;;;5052834;28;20202;-77
2022/07/11 05:25:40;;;;;;;4.80;3.10;;;;;;;;;;5052494;28;20227;-77
2022/07/11 05:28:08;;;;;;;4.60;3.30;;;;;;;;;;5053228;28;20196;-77
2022/07/11 05:30:37;;;;;;;5.60;2.70;;;;;;;;;;5053698;28;20573;-77
2022/07/11 05:33:05;;;;;;;3.33;3.03;;;;;;;;;;5053454;28;20214;-77
2022/07/11 05:35:34;;;;;;;2.90;2.23;;;;;;;;;;5033075;28;20232;-77
2022/07/11 05:38:02;;;;;;;2.50;2.30;;;;;;;;;;5049787;28;20652;-77
2022/07/11 05:40:31;;;;;;;4.33;2.90;;;;;;;;;;5036647;28;20218;-77
2022/07/11 05:43:01;;;;;;;5.27;3.33;;;;;;;;;;5053507;28;20222;-77
2022/07/11 05:45:29;;;;;;;3.00;2.40;;;;;;;;;;5052414;28;20628;-77
2022/07/11 05:47:58;;;;;;;3.67;2.60;;;;;;;;;;5053698;28;20211;-77
2022/07/11 05:50:26;;;;;;;3.37;2.60;;;;;;;;;;5051072;28;20253;-77
2022/07/11 05:52:57;;;;;;;3.30;2.53;;;;;;;;;;5046382;28;20211;-77
2022/07/11 05:55:25;;;;;;;2.83;2.40;;;;;;;;;;5053103;28;20273;-77
2022/07/11 05:57:54;;;;;;;3.47;2.60;;;;;;;;;;5055118;28;20211;-77
2022/07/11 06:00:25;;;;;;;2.67;2.27;;;;;;;;;;5055312;28;20203;-77
2022/07/11 06:02:54;;;;;;;3.47;2.57;;;;;;;;;;5056108;28;20190;-77
2022/07/11 06:05:23;;;;;;;4.00;2.67;;;;;;;;;;5055302;28;20212;-77
2022/07/11 06:10:39;;;;;;;4.77;2.90;;;;;;;;;;5035966;28;20274;-77
2022/07/11 06:13:07;;;;;;;5.20;2.80;;;;;;;;;;5048290;28;20203;-77
2022/07/11 06:15:37;;;;;;;3.37;2.53;;;;;;;;;;5053249;28;20222;-77
2022/07/11 06:18:05;;;;;;;4.57;2.77;;;;;;;;;;5053044;28;20203;-77
2022/07/11 06:20:34;;;;;;;3.93;2.87;;;;;;;;;;5055488;28;20254;-77
2022/07/11 06:23:03;;;;;;;3.90;2.70;;;;;;;;;;5055698;28;20207;-77
2022/07/11 06:25:32;;;;;;;3.22;2.40;;;;;;;;;;5055379;28;20231;-77
2022/07/11 06:28:01;;;;;;;3.65;2.78;;;;;;;;;;5055457;28;20207;-76
2022/07/11 06:30:30;;;;;;;3.05;2.78;;;;;;;;;;5054986;28;20257;-77
2022/07/11 06:33:00;;;;;;;3.20;2.80;;;;;;;;;;5055350;28;20207;-77
2022/07/11 06:35:29;;;;;;;2.90;2.63;;;;;;;;;;5054497;28;20609;-77
2022/07/11 06:37:57;;;;;;;3.80;2.50;;;;;;;;;;5035234;28;20239;-77
2022/07/11 06:40:26;;;;;;;5.00;2.95;;;;;;;;;;5036797;28;20648;-77
2022/07/11 06:42:54;;;;;;;2.50;2.30;;;;;;;;;;5035363;28;20207;-76
2022/07/11 06:45:23;;;;;;;2.13;1.83;;;;;;;;;;5047869;28;20265;-77
2022/07/11 06:47:52;;;;;;;2.42;1.67;;;;;;;;;;5049401;28;20204;-77
2022/07/11 06:50:22;;;;;;;2.07;1.50;;;;;;;;;;5035888;28;20207;-77
2022/07/11 06:52:50;;;;;;;4.20;1.80;;;;;;;;;;5039072;28;20211;-77
2022/07/11 06:55:19;;;;;;;2.28;2.08;;;;;;;;;;5054633;28;20254;-77
2022/07/11 06:57:49;;;;;;;3.80;1.90;;;;;;;;;;5053698;28;20203;-76
2022/07/11 07:00:38;;;;;;;3.10;1.90;;;;;;;;;;5054266;28;20199;-76
2022/07/11 07:03:08;;;;;;;5.22;1.67;;;;;;;;;;5054235;28;20203;-76
2022/07/11 07:05:48;;;;;;;2.85;1.83;;;;;;;;;;5054711;28;20687;-76
2022/07/11 07:08:16;;;;;;;2.80;2.00;;;;;;;;;;5054791;28;20218;-76
2022/07/11 07:10:45;;;;;;;3.53;2.20;;;;;;;;;;5050739;28;20207;-76
2022/07/11 07:13:14;;;;;;;3.63;2.05;;;;;;;;;;5037760;28;20188;-77
2022/07/11 07:15:42;;;;;;;5.15;2.22;;;;;;;;;;5053957;28;20231;-76
2022/07/11 07:18:11;;;;;;;2.70;2.40;;;;;;;;;;5055213;28;20207;-76
2022/07/11 07:20:40;;;;;;;3.83;2.50;;;;;;;;;;5054810;28;20287;-76
2022/07/11 07:23:10;;;;;;;2.70;2.50;;;;;;;;;;5054554;28;20210;-76
2022/07/11 07:25:38;;;;;;;2.53;2.40;;;;;;;;;;5054268;28;20619;-76
2022/07/11 07:28:06;;;;;;;3.20;2.58;;;;;;;;;;5053366;28;20272;-76
2022/07/11 07:30:35;;;;;;;2.78;2.58;;;;;;;;;;5054276;28;21266;-76
2022/07/11 07:33:03;;;;;;;3.00;2.15;;;;;;;;;;5055026;28;20198;-76
2022/07/11 07:35:32;;;;;;;3.97;2.55;;;;;;;;;;5053580;28;20231;-76
2022/07/11 07:38:00;;;;;;;2.50;2.30;;;;;;;;;;5054233;28;20644;-76
2022/07/11 07:40:30;;;;;;;2.75;2.35;;;;;;;;;;5053873;28;20207;-76
2022/07/11 07:43:01;;;;;;;4.82;2.30;;;;;;;;;;5034467;28;20618;-76
2022/07/11 07:45:29;;;;;;;2.00;1.80;;;;;;;;;;5039229;28;20301;-76
2022/07/11 07:47:58;;;;;;;3.92;2.03;;;;;;;;;;5047786;28;20245;-76
2022/07/11 07:50:27;;;;;;;2.10;1.90;;;;;;;;;;5053913;28;20203;-76
2022/07/11 07:52:55;;;;;;;2.00;1.90;;;;;;;;;;5053085;28;20215;-76
2022/07/11 07:55:24;;;;;;;3.85;2.45;;;;;;;;;;5053896;28;20273;-76
2022/07/11 07:57:54;;;;;;;2.17;1.98;;;;;;;;;;5053999;28;20211;-75
2022/07/11 08:03:09;;;;;;;2.83;2.63;;;;;;;;;;5034231;28;20586;-76
2022/07/11 08:05:37;;;;;;;2.60;2.40;;;;;;;;;;5034886;28;20337;-76
2022/07/11 08:08:06;;;;;;;6.05;4.55;;;;;;;;;;5033747;28;20208;-76
2022/07/11 08:10:34;;;;;;;5.50;4.00;;;;;;;;;;5034748;28;22214;-76
2022/07/11 08:13:04;;;;;;;4.38;3.97;;;;;;;;;;5053932;28;20672;-76
2022/07/11 08:18:15;;;;;;;4.93;4.07;;;;;;;;;;5033518;28;20203;-75
2022/07/11 08:20:43;;;;;;;4.10;3.72;;;;;;;;;;5043560;28;20207;-76
2022/07/11 08:23:12;;;;;;;4.05;3.63;;;;;;;;;;5033748;28;20195;-76
2022/07/11 08:25:41;;;;;;;3.63;3.33;;;;;;;;;;5036340;28;20215;-76
2022/07/11 08:28:10;;;;;;;5.82;4.55;;;;;;;;;;5052766;28;20655;-76
2022/07/11 08:30:39;;;;;;;4.15;3.63;;;;;;;;;;5053058;28;20226;-76
2022/07/11 08:33:08;;;;;;;4.15;3.80;;;;;;;;;;5053106;28;20722;-76
2022/07/11 08:35:36;;;;;;;4.22;3.08;;;;;;;;;;5052596;28;20222;-76
2022/07/11 08:38:05;;;;;;;2.90;2.70;;;;;;;;;;5052785;28;20706;-76
2022/07/11 08:40:33;;;;;;;3.28;2.97;;;;;;;;;;5052344;28;20203;-76
2022/07/11 08:43:03;;;;;;;3.58;3.28;;;;;;;;;;5053236;28;20211;-76
2022/07/11 08:45:33;;;;;;;3.63;3.28;;;;;;;;;;5053583;28;20230;-75
2022/07/11 08:48:02;;;;;;;3.30;3.10;;;;;;;;;;5052302;28;20207;-76
2022/07/11 08:50:31;;;;;;;3.67;2.92;;;;;;;;;;5053095;28;20652;-75
2022/07/11 08:53:00;;;;;;;3.58;3.20;;;;;;;;;;5053209;28;20228;-75
2022/07/11 08:55:29;;;;;;;3.85;3.47;;;;;;;;;;5051870;28;20234;-76
2022/07/11 08:57:58;;;;;;;3.78;2.90;;;;;;;;;;5046720;28;20227;-75
2022/07/11 09:00:26;;;;;;;3.50;3.20;;;;;;;;;;5053353;28;20640;-75
2022/07/11 09:02:57;;;;;;;3.60;3.30;;;;;;;;;;5052220;28;20248;-76
2022/07/11 09:05:27;;;;;;;3.15;2.85;;;;;;;;;;5052739;28;20596;-76
2022/07/11 09:07:55;;;;;;;2.60;2.28;;;;;;;;;;5053213;28;20329;-75
2022/07/11 09:10:23;;;;;;;2.95;2.70;;;;;;;;;;5051309;28;20209;-75
2022/07/11 09:13:02;;;;;;;4.13;3.03;;;;;;;;;;5053310;28;20656;-75
2022/07/11 09:15:37;;;;;;;3.20;2.38;;;;;;;;;;5052218;28;20687;-76
2022/07/11 09:18:08;;;;;;;2.60;2.40;;;;;;;;;;5052642;28;20218;-76
2022/07/11 09:26:26;;;;;;;2.25;2.05;;;;;;;;;;5042456;28;20230;-76
2022/07/11 09:29:01;;;;;;;2.25;2.05;;;;;;;;;;5053454;28;20672;-76
2022/07/11 09:31:30;;;;;;;2.63;2.17;;;;;;;;;;5049334;28;20210;-75
2022/07/11 09:34:01;;;;;;;2.47;1.98;;;;;;;;;;5056713;28;20230;-76
2022/07/11 09:36:43;;;;;;;2.40;2.20;;;;;;;;;;5055942;28;20227;-76
2022/07/11 09:39:13;;;;;;;3.15;1.98;;;;;;;;;;5056467;28;20191;-76
2022/07/11 09:41:41;;;;;;;2.45;2.25;;;;;;;;;;5045306;28;20294;-76
2022/07/11 09:44:11;;;;;;;2.30;2.13;;;;;;;;;;5050788;28;20214;-75
2022/07/11 09:46:39;;;;;;;1.60;1.50;;;;;;;;;;5055323;28;20215;-76
2022/07/11 09:49:10;;;;;;;1.60;1.50;;;;;;;;;;5056276;28;20207;-75
2022/07/11 09:51:39;;;;;;;1.65;1.40;;;;;;;;;;5056400;28;20221;-76
2022/07/11 09:54:08;;;;;;;2.58;2.20;;;;;;;;;;5056448;28;20269;-75
2022/07/11 09:56:41;;;;;;;1.63;1.52;;;;;;;;;;5055965;28;20234;-76
2022/07/11 09:59:25;;;;;;;1.70;1.42;;;;;;;;;;5053322;28;20285;-76
2022/07/11 10:01:54;;;;;;;2.00;1.80;;;;;;;;;;4704222;28;9999774;-76
2022/07/11 10:04:33;;;;;;;1.80;1.70;;;;;;;;;;5054332;28;20668;-76
2022/07/11 10:07:02;;;;;;;2.30;2.00;;;;;;;;;;5053571;28;20265;-76
2022/07/11 10:09:31;;;;;;;5.15;3.05;;;;;;;;;;5054369;28;20199;-75
2022/07/11 10:12:00;;;;;;;2.25;2.00;;;;;;;;;;5055034;28;20249;-76
2022/07/11 10:14:29;;;;;;;3.03;2.00;;;;;;;;;;5055706;28;20215;-75
2022/07/11 10:16:59;;;;;;;2.00;1.90;;;;;;;;;;5055462;28;20268;-76
2022/07/11 10:19:35;;;;;;;1.98;1.80;;;;;;;;;;5054661;28;20196;-76
2022/07/11 10:22:10;;;;;;;3.67;2.35;;;;;;;;;;5055531;28;20264;-76
2022/07/11 10:24:55;;;;;;;2.70;2.50;;;;;;;;;;5056313;28;20221;-76
2022/07/11 10:27:27;;;;;;;2.50;2.40;;;;;;;;;;5056176;28;20710;-75
2022/07/11 10:30:01;;;;;;;3.30;3.00;;;;;;;;;;5055436;28;20210;-75
2022/07/11 10:32:29;;;;;;;2.80;2.50;;;;;;;;;;5055976;28;20298;-75
2022/07/11 10:35:07;;;;;;;2.70;2.60;;;;;;;;;;5055378;28;20671;-76
2022/07/11 10:37:54;;;;;;;4.18;2.75;;;;;;;;;;5055162;28;20663;-76
2022/07/11 10:40:37;;;;;;;3.03;2.83;;;;;;;;;;5053674;28;20203;-76
2022/07/11 10:43:05;;;;;;;4.45;2.97;;;;;;;;;;5034760;28;20295;-76
2022/07/11 10:45:50;;;;;;;3.15;2.90;;;;;;;;;;5038764;28;20772;-76
2022/07/11 10:48:18;;;;;;;3.72;3.10;;;;;;;;;;5050769;28;20199;-76
2022/07/11 10:50:48;;;;;;;3.60;3.30;;;;;;;;;;5055085;28;20203;-76
2022/07/11 10:53:22;;;;;;;3.30;3.00;;;;;;;;;;5054362;28;20203;-76
2022/07/11 10:56:02;;;;;;;3.45;2.90;;;;;;;;;;5055053;28;20679;-76
2022/07/11 10:58:31;;;;;;;4.55;3.00;;;;;;;;;;5055151;28;20229;-75
2022/07/11 11:01:10;;;;;;;3.83;3.53;;;;;;;;;;5054995;28;20303;-76
2022/07/11 11:03:39;;;;;;;3.75;3.50;;;;;;;;;;5055072;28;20207;-76
2022/07/11 11:06:08;;;;;;;3.10;2.80;;;;;;;;;;5054594;28;20223;-75
2022/07/11 11:08:47;;;;;;;3.30;2.60;;;;;;;;;;5054078;28;20199;-76
2022/07/11 11:11:37;;;;;;;2.78;2.58;;;;;;;;;;5054311;28;20622;-76
2022/07/11 11:14:23;;;;;;;3.13;2.83;;;;;;;;;;5049395;28;20345;-76
2022/07/11 11:16:52;;;;;;;3.50;3.20;;;;;;;;;;5053988;28;20222;-76
2022/07/11 11:19:38;;;;;;;3.35;3.10;;;;;;;;;;5055135;28;20211;-76
2022/07/11 11:22:13;;;;;;;3.20;2.90;;;;;;;;;;5046774;28;20207;-76
2022/07/11 11:24:44;;;;;;;5.40;3.65;;;;;;;;;;5054809;28;20195;-75
2022/07/11 11:30:16;;;;;;;3.05;2.85;;;;;;;;;;5054495;28;20238;-76
2022/07/11 11:32:48;;;;;;;3.00;2.80;;;;;;;;;;5053272;28;20203;-76
2022/07/11 11:35:20;;;;;;;3.33;3.13;;;;;;;;;;5054478;28;20228;-76
2022/07/11 11:37:57;;;;;;;3.05;2.85;;;;;;;;;;5051726;28;20256;-76
2022/07/11 11:40:27;;;;;;;3.00;2.80;;;;;;;;;;5054196;28;20207;-76
2022/07/11 11:42:56;;;;;;;3.08;2.88;;;;;;;;;;5048569;28;20214;-76
2022/07/11 11:45:30;;;;;;;3.50;3.20;;;;;;;;;;5054174;28;20231;-76
2022/07/11 11:48:01;;;;;;;4.22;3.20;;;;;;;;;;5048165;28;20211;-76
2022/07/11 11:50:29;;;;;;;3.90;3.55;;;;;;;;;;5038703;28;20227;-76
2022/07/11 11:52:58;;;;;;;3.33;3.03;;;;;;;;;;5054091;28;20203;-76
2022/07/11 11:55:28;;;;;;;3.33;3.13;;;;;;;;;;5054155;28;20225;-76
2022/07/11 11:57:56;;;;;;;3.50;3.17;;;;;;;;;;5039621;28;20283;-77
2022/07/11 12:00:30;;;;;;;4.20;3.80;;;;;;;;;;5054076;28;20203;-76
2022/07/11 12:03:18;;;;;;;5.03;3.92;;;;;;;;;;5039456;28;20268;-76
2022/07/11 12:05:55;;;;;;;2.65;2.45;;;;;;;;;;5053058;28;20230;-77
2022/07/11 12:08:27;;;;;;;3.28;2.70;;;;;;;;;;5053914;28;20269;-76
2022/07/11 12:10:57;;;;;;;3.08;2.85;;;;;;;;;;5047152;28;20223;-76
2022/07/11 12:13:26;;;;;;;2.30;2.15;;;;;;;;;;5034098;28;20242;-76
2022/07/11 12:18:41;;;;;;;2.40;2.20;;;;;;;;;;5053492;28;20230;-77
2022/07/11 12:21:15;;;;;;;2.72;2.50;;;;;;;;;;5053436;28;20199;-77
2022/07/11 12:23:43;;;;;;;3.10;2.90;;;;;;;;;;5054047;28;20199;-77
2022/07/11 12:26:13;;;;;;;3.70;3.40;;;;;;;;;;5053469;28;20566;-76
2022/07/11 12:28:57;;;;;;;3.83;2.45;;;;;;;;;;5053799;28;20620;-76
2022/07/11 12:31:25;;;;;;;3.92;2.80;;;;;;;;;;5054120;28;20241;-77
2022/07/11 12:33:54;;;;;;;2.00;1.80;;;;;;;;;;5053341;28;20610;-76
2022/07/11 12:36:33;;;;;;;2.38;2.00;;;;;;;;;;5053553;28;20621;-77
2022/07/11 12:39:01;;;;;;;2.03;1.80;;;;;;;;;;5053355;28;20676;-76
2022/07/11 12:41:32;;;;;;;2.38;1.92;;;;;;;;;;5052929;28;20300;-76
2022/07/11 12:46:47;;;;;;;2.17;2.05;;;;;;;;;;5053388;28;20231;-78
2022/07/11 12:49:18;;;;;;;2.53;1.90;;;;;;;;;;5053475;28;20247;-77
2022/07/11 13:01:21;;;;;;;1.90;1.70;;;;;;;;;;5038423;22;10001763;-76
2022/07/11 13:03:49;;;;;;;1.27;1.17;;;;;;;;;;5007258;28;20195;-75
2022/07/11 13:08:41;;;;;;;1.30;1.20;;;;;;;;;;5013694;28;20235;-76
2022/07/11 13:09:06;;;;;;;1.33;1.23;;;;;;;;;;5013734;28;20292;-75
2022/07/11 13:11:35;;;;;;;1.60;1.50;;;;;;;;;;4997146;28;20189;-76
2022/07/11 13:15:08;;;;;;;1.90;1.70;;;;;;;;;;4996251;28;20263;-76
2022/07/11 13:16:53;;;;;;;1.50;1.40;;;;;;;;;;4995749;28;20232;-76
2022/07/11 13:19:22;;;;;;;1.35;1.35;;;;;;;;;;4996676;28;20668;-75
2022/07/11 13:21:51;;;;;;;1.52;1.30;;;;;;;;;;4995960;28;20247;-77
2022/07/11 13:24:19;;;;;;;2.67;1.48;;;;;;;;;;4995808;28;20205;-76
2022/07/11 13:26:48;;;;;;;1.40;1.30;;;;;;;;;;4995642;28;20565;-75
2022/07/11 13:29:17;;;;;;;1.08;1.08;;;;;;;;;;4994094;28;20206;-76
2022/07/11 13:31:45;;;;;;;1.77;1.40;;;;;;;;;;4995566;28;20208;-77
2022/07/11 13:34:16;;;;;;;1.40;1.30;;;;;;;;;;4995795;28;20590;-76
2022/07/11 13:36:44;;;;;;;1.27;1.27;;;;;;;;;;4995888;28;20331;-76
2022/07/11 13:39:13;;;;;;;1.40;1.30;;;;;;;;;;4993627;28;20221;-76
2022/07/11 13:41:41;;;;;;;1.65;1.55;;;;;;;;;;4976745;28;20213;-76
2022/07/11 13:44:09;;;;;;;1.33;1.23;;;;;;;;;;4988658;28;20260;-76
2022/07/11 13:46:38;;;;;;;2.03;1.40;;;;;;;;;;4995871;28;20225;-76
2022/07/11 13:49:06;;;;;;;1.30;1.20;;;;;;;;;;4995460;28;20212;-76
2022/07/11 13:51:36;;;;;;;3.22;1.48;;;;;;;;;;4995403;28;20209;-76
2022/07/11 13:54:05;;;;;;;1.35;1.23;;;;;;;;;;4995334;28;20209;-75
2022/07/11 13:56:33;;;;;;;1.65;1.40;;;;;;;;;;4995683;28;20229;-76
2022/07/11 13:59:02;;;;;;;1.80;1.10;;;;;;;;;;4995419;28;20225;-76
2022/07/11 14:01:30;;;;;;;1.55;1.45;;;;;;;;;;4995374;28;20259;-76
2022/07/11 14:03:59;;;;;;;1.27;1.00;;;;;;;;;;4995385;28;20256;-77
2022/07/11 14:06:27;;;;;;;1.27;1.20;;;;;;;;;;4995107;28;20233;-76
2022/07/11 14:09:17;;;;;;;1.15;1.10;;;;;;;;;;4995566;28;20193;-76
2022/07/11 14:11:45;;;;;;;1.20;1.13;;;;;;;;;;4983844;28;20216;-76
2022/07/11 14:14:14;;;;;;;1.52;1.30;;;;;;;;;;4995269;28;20205;-76
2022/07/11 14:16:42;;;;;;;1.23;1.20;;;;;;;;;;4996076;28;20240;-76
2022/07/11 14:19:12;;;;;;;1.75;1.10;;;;;;;;;;4995364;28;20275;-76
2022/07/11 14:21:41;;;;;;;1.55;0.90;;;;;;;;;;4996973;28;20205;-77
2022/07/11 14:24:19;;;;;;;2.17;1.00;;;;;;;;;;4996860;28;20212;-76
2022/07/11 14:26:48;;;;;;;1.10;0.70;;;;;;;;;;4996911;28;20225;-77
2022/07/11 14:29:16;;;;;;;0.80;0.80;;;;;;;;;;4996686;28;20236;-77
2022/07/11 14:31:45;;;;;;;0.90;0.90;;;;;;;;;;4996014;28;20201;-76
2022/07/11 14:34:14;;;;;;;0.90;0.90;;;;;;;;;;4996713;28;20202;-77
2022/07/11 14:36:42;;;;;;;1.33;0.90;;;;;;;;;;4996239;28;20221;-77
2022/07/11 14:39:10;;;;;;;2.38;1.02;;;;;;;;;;4996476;28;20229;-77
2022/07/11 14:41:40;;;;;;;1.00;1.00;;;;;;;;;;4996209;28;20209;-77
2022/07/11 14:44:09;;;;;;;1.65;1.10;;;;;;;;;;4996549;28;20209;-77
2022/07/11 14:46:37;;;;;;;1.45;1.23;;;;;;;;;;4996029;28;20232;-76
2022/07/11 14:49:14;;;;;;;1.00;0.90;;;;;;;;;;4996103;28;20185;-77
2022/07/11 14:51:44;;;;;;;0.98;0.98;;;;;;;;;;4996509;28;20212;-77
2022/07/11 14:57:08;;;;;;;2.08;1.30;;;;;;;;;;4996668;28;20272;-77
2022/07/11 14:59:37;;;;;;;2.10;1.25;;;;;;;;;;4995743;28;20212;-77
2022/07/11 15:02:05;;;;;;;1.20;1.10;;;;;;;;;;4989930;28;20260;-77
2022/07/11 15:04:34;;;;;;;1.48;1.38;;;;;;;;;;4981690;28;20263;-77
2022/07/11 15:12:38;;;;;;;2.28;1.40;;;;;;;;;;4995839;28;20189;-76
2022/07/11 15:15:07;;;;;;;1.73;1.17;;;;;;;;;;4995436;28;20220;-77
2022/07/11 15:17:35;;;;;;;1.25;1.15;;;;;;;;;;4995338;28;20646;-77
2022/07/11 15:20:04;;;;;;;1.45;1.35;;;;;;;;;;4995486;28;20224;-77
2022/07/11 15:22:32;;;;;;;1.40;1.30;;;;;;;;;;4989303;28;20205;-76
2022/07/11 15:25:01;;;;;;;1.52;1.25;;;;;;;;;;4975470;28;20213;-77
2022/07/11 15:27:29;;;;;;;1.10;1.10;;;;;;;;;;4975942;28;20288;-77
2022/07/11 15:29:59;;;;;;;3.22;3.03;;;;;;;;;;4991696;28;20595;-77
2022/07/11 15:32:28;;;;;;;1.40;1.30;;;;;;;;;;4994918;28;20263;-77
2022/07/11 15:34:56;;;;;;;1.45;1.15;;;;;;;;;;4994680;28;20209;-76
2022/07/11 15:37:24;;;;;;;1.50;1.40;;;;;;;;;;4995323;28;20209;-77
2022/07/11 15:39:53;;;;;;;2.25;1.50;;;;;;;;;;4994772;28;20236;-76